^^
MeteoGriva-Weather Station Historical Data
Daily Summary for April 28, 2020 Units:  English    Metric   Both
Daily Weekly Monthly Yearly Custom
  High: Low: Average:
Temperature: 56.3 °F 43.7 °F 49.3 °F
Dew Point: 47.8 °F 39.9 °F 43.7 °F
Humidity: 99% 67.4% 82%
Wind Speed: 2.6mph 0mph 0.2mph
Wind Gust: 10.1mph - -
Wind- - South
Pressure: 30 in 0 in -
Precipitation: 0 in    
Historical Graphs
 
 
Tabular Data for April 28, 2020
Time Temperature Dew Point Pressure Wind Wind Speed Wind Gust Humidity Rainfall Rate (Hourly) solar
00:04 46.2 °F 45.7 °F 29.9 in Calm     97.3% 0 in 0 W/m2
00:09 46.6 °F 45.5 °F 29.9 in Calm     96.1% 0 in 0 W/m2
00:14 46.6 °F 45.3 °F 29.9 in Calm     95.6% 0 in 0 W/m2
00:19 46.6 °F 45.1 °F 29.9 in Calm     95.2% 0 in 0 W/m2
00:24 46.4 °F 45.1 °F 29.9 in Calm     95.4% 0 in 0 W/m2
00:29 46.2 °F 45.5 °F 29.9 in Calm     97% 0 in 0 W/m2
00:34 46.2 °F 45.7 °F 29.9 in Calm     97.6% 0 in 0 W/m2
00:39 46 °F 45.5 °F 29.9 in North 0.4 mph 4.9 mph 98% 0 in 0 W/m2
00:44 46 °F 45.3 °F 29.9 in Calm   4.9 mph 97.1% 0 in 0 W/m2
00:49 45.9 °F 45.3 °F 29.9 in Calm     97.9% 0 in 0 W/m2
00:54 45.9 °F 45.3 °F 29.9 in Calm     98% 0 in 0 W/m2
00:59 45.7 °F 45.1 °F 29.9 in Calm     97.9% 0 in 0 W/m2
01:04 45.7 °F 44.8 °F 29.9 in Calm     96.7% 0 in 0 W/m2
01:09 45.5 °F 44.6 °F 29.9 in SW 0.1 mph 2.5 mph 96.7% 0 in 0 W/m2
01:14 45.5 °F 43.9 °F 29.9 in NW 1.1 mph 7.6 mph 94.2% 0 in 0 W/m2
01:19 45.5 °F 44.4 °F 29.9 in NNW 1.7 mph 7.6 mph 96.1% 0 in 0 W/m2
01:24 45.5 °F 45.3 °F 29.9 in NNE 0.1 mph 2.5 mph 99% 0 in 0 W/m2
01:29 45.3 °F 45.1 °F 29.9 in Calm   2.5 mph 99% 0 in 0 W/m2
01:34 45.3 °F 45.1 °F 29.9 in Calm     99% 0 in 0 W/m2
01:39 45.1 °F 45 °F 29.9 in WNW 0.1 mph 2.5 mph 99% 0 in 0 W/m2
01:44 45.3 °F 45 °F 29.9 in NNE 0.5 mph 4.9 mph 97.9% 0 in 0 W/m2
01:49 45.7 °F 45.1 °F 29.9 in Calm   4.9 mph 98% 0 in 0 W/m2
01:54 45.5 °F 45.3 °F 29.9 in Calm     99% 0 in 0 W/m2
01:59 45.3 °F 45.1 °F 29.9 in NW 0.4 mph 4.9 mph 99% 0 in 0 W/m2
02:04 45.1 °F 44.8 °F 29.9 in Calm   4.9 mph 99% 0 in 0 W/m2
02:09 44.6 °F 44.4 °F 29.9 in North 0.1 mph 2.5 mph 99% 0 in 0 W/m2
02:14 44.6 °F 44.2 °F 29.9 in NW 0.4 mph 4.9 mph 98.3% 0 in 0 W/m2
02:19 44.6 °F 44.1 °F 29.9 in WNW 0.1 mph 2.5 mph 97.5% 0 in 0 W/m2
02:24 44.4 °F 44.1 °F 29.9 in Calm     98.3% 0 in 0 W/m2
02:29 44.1 °F 43.9 °F 29.9 in Calm     99% 0 in 0 W/m2
02:34 44.1 °F 43.9 °F 29.9 in Calm     99% 0 in 0 W/m2
02:39 44.1 °F 43.5 °F 29.9 in Calm     98% 0 in 0 W/m2
02:44 44.1 °F 43.5 °F 29.9 in Calm     98% 0 in 0 W/m2
02:49 43.7 °F 43.2 °F 29.9 in Calm     97.9% 0 in 0 W/m2
02:54 43.7 °F 42.4 °F 29.9 in Calm     95.1% 0 in 0 W/m2
02:59 43.9 °F 42.1 °F 29.9 in Calm   2.5 mph 93.1% 0 in 0 W/m2
03:04 44.2 °F 41.7 °F 29.9 in Calm     91.1% 0 in 0 W/m2
03:09 45 °F 42.3 °F 29.9 in Calm     90.3% 0 in 0 W/m2
03:14 44.8 °F 42.3 °F 29.9 in Calm     91% 0 in 0 W/m2
03:19 44.8 °F 42.3 °F 29.9 in Calm     91.1% 0 in 0 W/m2
03:24 44.8 °F 42.6 °F 29.9 in Calm     92% 0 in 0 W/m2
03:29 44.6 °F 42.6 °F 29.9 in Calm     92.7% 0 in 0 W/m2
03:34 44.6 °F 42.6 °F 29.9 in Calm     93% 0 in 0 W/m2
03:39 44.6 °F 42.6 °F 29.9 in Calm     93% 0 in 0 W/m2
03:44 44.4 °F 42.4 °F 29.9 in Calm     92.4% 0 in 0 W/m2
03:49 44.6 °F 42.3 °F 29.9 in Calm     91.7% 0 in 0 W/m2
03:54 44.6 °F 42.4 °F 29.9 in Calm     92.1% 0 in 0 W/m2
03:59 44.4 °F 42.4 °F 29.9 in Calm   2.5 mph 92.8% 0 in 0 W/m2
04:04 44.2 °F 42.3 °F 29.9 in WNW 0.4 mph 4.9 mph 93% 0 in 0 W/m2
04:09 43.9 °F 41.9 °F 29.9 in Calm   4.9 mph 92.4% 0 in 0 W/m2
04:14 43.9 °F 41.5 °F 29.9 in Calm     91.3% 0 in 0 W/m2
04:19 44.1 °F 41.7 °F 29.9 in WNW 0.2 mph 2.5 mph 91.6% 0 in 0 W/m2
04:24 44.1 °F 41.5 °F 29.9 in Calm     91% 0 in 0 W/m2
04:29 43.9 °F 41.9 °F 29.9 in WNW 0.2 mph 2.5 mph 92.6% 0 in 0 W/m2
04:34 43.9 °F 41.5 °F 29.9 in Calm   2.5 mph 91.4% 0 in 0 W/m2
04:39 43.9 °F 41.4 °F 29.9 in Calm   2.5 mph 90.7% 0 in 0 W/m2
04:44 44.1 °F 41.4 °F 29.9 in Calm     90.6% 0 in 0 W/m2
04:49 44.1 °F 41.4 °F 29.9 in West 0.1 mph 2.5 mph 90.4% 0 in 0 W/m2
04:54 44.1 °F 41.4 °F 29.9 in Calm   2.5 mph 89.8% 0 in 0 W/m2
04:59 44.1 °F 41.4 °F 29.9 in Calm     90.2% 0 in 0 W/m2
05:04 44.1 °F 41.4 °F 29.9 in Calm     90% 0 in 0 W/m2
05:09 44.4 °F 41.2 °F 29.9 in WNW 0.4 mph 2.5 mph 88.6% 0 in 0 W/m2
05:14 44.4 °F 41.2 °F 29.9 in Calm   2.5 mph 87.8% 0 in 0 W/m2
05:19 44.2 °F 41.4 °F 29.9 in NNW 0.1 mph 2.5 mph 89.1% 0 in 0 W/m2
05:24 44.2 °F 41.2 °F 29.9 in Calm     89% 0 in 0 W/m2
05:29 44.6 °F 41 °F 29.9 in Calm     87.3% 0 in 0 W/m2
05:34 44.6 °F 40.8 °F 29.9 in Calm     86.5% 0 in 0 W/m2
05:39 44.6 °F 40.6 °F 29.9 in Calm   2.5 mph 86% 0 in 0 W/m2
05:44 44.6 °F 40.6 °F 29.9 in Calm     85.8% 0 in 0 W/m2
05:49 44.6 °F 40.6 °F 29.9 in Calm   2.5 mph 86.1% 0 in 0 W/m2
05:54 44.8 °F 40.3 °F 29.9 in Calm     84.2% 0 in 0 W/m2
05:59 44.8 °F 40.5 °F 29.9 in Calm     84.4% 0 in 0 W/m2
06:04 45 °F 40.1 °F 29.9 in Calm     82.9% 0 in 0 W/m2
06:09 45.3 °F 40.3 °F 29.9 in Calm     82.7% 0 in 0 W/m2
06:14 45.3 °F 40.1 °F 29.9 in Calm     82.2% 0 in 0 W/m2
06:19 45.5 °F 40.5 °F 29.9 in Calm     82.9% 0 in 0 W/m2
06:24 45.3 °F 40.8 °F 29.9 in Calm     84% 0 in 0 W/m2
06:29 45 °F 40.5 °F 29.9 in Calm     84.2% 0 in 0 W/m2
06:34 44.8 °F 40.5 °F 29.9 in Calm     85.1% 0 in 0 W/m2
06:39 44.8 °F 40.3 °F 29.9 in Calm     84.3% 0 in 0 W/m2
06:44 44.8 °F 40.6 °F 29.9 in Calm     85.2% 0 in 0 W/m2
06:49 44.8 °F 40.5 °F 29.9 in SSW 0.2 mph 2.5 mph 84.9% 0 in 0 W/m2
06:54 44.8 °F 40.5 °F 29.9 in West 0.1 mph 2.5 mph 84.6% 0 in 0 W/m2
06:59 44.8 °F 40.6 °F 29.9 in Calm   2.5 mph 85.6% 0 in 0 W/m2
07:04 44.8 °F 41 °F 29.9 in Calm     86.6% 0 in 0 W/m2
07:09 44.6 °F 40.8 °F 29.9 in Calm     86.9% 0 in 0 W/m2
07:14 44.4 °F 41.2 °F 29.9 in Calm     88.3% 0 in 0 W/m2
07:19 44.4 °F 40.6 °F 29.9 in Calm     86.7% 0 in 0 W/m2
07:24 44.2 °F 40.6 °F 29.9 in Calm   2.5 mph 87.1% 0 in 0 W/m2
07:29 44.2 °F 40.5 °F 29.9 in Calm     86.3% 0 in 0 W/m2
07:34 44.2 °F 40.3 °F 29.9 in West 0.2 mph 2.5 mph 86.2% 0 in 0 W/m2
07:39 44.2 °F 40.1 °F 29.9 in Calm     85% 0 in 0 W/m2
07:44 44.4 °F 40.3 °F 29.9 in Calm     85% 0 in 0 W/m2
07:49 44.2 °F 40.5 °F 29.9 in Calm     86.6% 0 in 2 W/m2
07:54 44.2 °F 40.5 °F 29.9 in Calm     86.7% 0 in 6 W/m2
07:59 44.2 °F 40.6 °F 29.9 in Calm     86.7% 0 in 11 W/m2
08:04 44.4 °F 40.6 °F 29.9 in Calm     86.6% 0 in 17 W/m2
08:09 45.1 °F 41 °F 29.9 in Calm     85.6% 0 in 22 W/m2
08:14 45.3 °F 41.2 °F 29.9 in Calm     85.3% 0 in 27 W/m2
08:19 45.3 °F 41 °F 29.9 in Calm     84.4% 0 in 32 W/m2
08:24 45.7 °F 41 °F 29.9 in Calm     83.7% 0 in 37 W/m2
08:29 46.9 °F 42.1 °F 29.9 in Calm   2.5 mph 83.1% 0 in 42 W/m2
08:34 47.8 °F 43 °F 29.9 in Calm   2.5 mph 83.6% 0 in 48 W/m2
08:39 47.8 °F 42.6 °F 29.9 in Calm     82% 0 in 52 W/m2
08:44 48.2 °F 42.4 °F 29.9 in Calm     80.6% 0 in 55 W/m2
08:49 49.5 °F 43.7 °F 29.9 in Calm     80.7% 0 in 60 W/m2
08:54 50 °F 44.1 °F 29.9 in Calm     80.1% 0 in 64 W/m2
08:59 50 °F 44.1 °F 29.9 in South 0.3 mph 2.5 mph 80% 0 in 66 W/m2
09:04 50 °F 44.1 °F 29.9 in South 0.9 mph 4.9 mph 80% 0 in 69 W/m2
09:09 50.5 °F 44.4 °F 29.9 in SE 0.1 mph 2.5 mph 79.3% 0 in 72 W/m2
09:14 50.9 °F 44.2 °F 29.9 in SSW 0.1 mph 2.5 mph 78% 0 in 76 W/m2
09:19 51.3 °F 44.1 °F 29.9 in South 0.2 mph 4.9 mph 76.7% 0 in 78 W/m2
09:24 51.4 °F 44.2 °F 29.9 in South 0.6 mph 4.9 mph 76.7% 0 in 80 W/m2
09:29 52 °F 44.6 °F 29.9 in SSE 2.1 mph 7.6 mph 76.1% 0 in 81 W/m2
09:34 52.2 °F 44.6 °F 29.9 in SSE 0.2 mph 4.9 mph 75.2% 0 in 82 W/m2
09:39 52.3 °F 44.1 °F 29.9 in South 0.4 mph 4.9 mph 73.7% 0 in 83 W/m2
09:44 52.5 °F 44.2 °F 29.9 in South 0.4 mph 4.9 mph 73.4% 0 in 85 W/m2
09:49 53.1 °F 44.6 °F 29.9 in SSE 1.6 mph 7.6 mph 73.1% 0 in 86 W/m2
09:54 53.2 °F 45.9 °F 29.9 in SSE 2.1 mph 7.6 mph 75.7% 0 in 86 W/m2
09:59 53.1 °F 45.7 °F 29.9 in SSE 1.3 mph 7.6 mph 76% 0 in 87 W/m2
10:04 53.1 °F 45.3 °F 30 in SSE 2.2 mph 7.6 mph 75.3% 0 in 88 W/m2
10:09 52.7 °F 44.8 °F 30 in South 1.6 mph 7.6 mph 74.6% 0 in 88 W/m2
10:14 52.7 °F 44.6 °F 30 in South 1.1 mph 7.6 mph 74.1% 0 in 89 W/m2
10:19 52.9 °F 44.4 °F 30 in SSE 0.7 mph 4.9 mph 73.2% 0 in 90 W/m2
10:24 52.9 °F 44.6 °F 29.9 in SSW 0.7 mph 4.9 mph 73.3% 0 in 90 W/m2
10:29 53.6 °F 45 °F 29.9 in SSE 0.8 mph 4.9 mph 72.7% 0 in 93 W/m2
10:34 54.1 °F 45.7 °F 29.9 in South 0.7 mph 4.9 mph 72.9% 0 in 95 W/m2
10:39 54.1 °F 45.3 °F 29.9 in SSW 1.2 mph 10.1 mph 72.1% 0 in 99 W/m2
10:44 54 °F 45.5 °F 29.9 in SSE 2.6 mph 10.1 mph 72.8% 0 in 101 W/m2
10:49 54 °F 45.9 °F 29.9 in South 1.3 mph 4.9 mph 73.8% 0 in 102 W/m2
10:54 54 °F 45.1 °F 29.9 in ESE 0.7 mph 4.9 mph 72.1% 0 in 105 W/m2
10:59 54 °F 45.5 °F 29.9 in South 1.1 mph 4.9 mph 73% 0 in 109 W/m2
11:04 54 °F 45.3 °F 29.9 in SSE 0.3 mph 7.6 mph 72.7% 0 in 115 W/m2
11:09 54 °F 45.5 °F 29.9 in SE 0.5 mph 4.9 mph 73.2% 0 in 125 W/m2
11:14 54 °F 45.7 °F 29.9 in SSE 0.6 mph 4.9 mph 73.7% 0 in 135 W/m2
11:19 54 °F 45.7 °F 29.9 in SSE 2.2 mph 7.6 mph 73.3% 0 in 137 W/m2
11:24 54.1 °F 45.5 °F 29.9 in South 0.7 mph 7.6 mph 72.8% 0 in 138 W/m2
11:29 54.5 °F 46 °F 29.9 in SSW 0.2 mph 7.6 mph 72.9% 0 in 150 W/m2
11:34 55 °F 46.6 °F 29.9 in SSW 0.5 mph 4.9 mph 73% 0 in 171 W/m2
11:39 55 °F 46.4 °F 29.9 in SE 0.3 mph 4.9 mph 72.3% 0 in 208 W/m2
11:44 55 °F 46.4 °F 29.9 in SE 1.3 mph 7.6 mph 72.6% 0 in 220 W/m2
11:49 55 °F 46.6 °F 29.9 in SSE 2.1 mph 7.6 mph 73% 0 in 207 W/m2
11:54 54.3 °F 46 °F 29.9 in South 1.6 mph 7.6 mph 73.4% 0 in 204 W/m2
11:59 54.3 °F 46.4 °F 29.9 in SSE 1.9 mph 4.9 mph 74.3% 0 in 161 W/m2
12:04 54.1 °F 45.9 °F 29.9 in SSE 0.3 mph 4.9 mph 73.1% 0 in 161 W/m2
12:09 54.3 °F 45.9 °F 29.9 in South 1.2 mph 7.6 mph 72.8% 0 in 170 W/m2
12:14 54.5 °F 46 °F 29.9 in ESE 1.4 mph 10.1 mph 73.2% 0 in 163 W/m2
12:19 54.3 °F 46.4 °F 29.9 in South 0.1 mph 4.9 mph 74.6% 0 in 129 W/m2
12:24 54.1 °F 46.8 °F 29.9 in Calm     76% 0 in 118 W/m2
12:29 53.8 °F 46.6 °F 29.9 in SSE 0.6 mph 7.6 mph 76.7% 0 in 121 W/m2
12:34 53.1 °F 46 °F 29.9 in Calm   2.5 mph 77% 0 in 138 W/m2
12:39 53.1 °F 46.4 °F 29.9 in NE 0.1 mph 2.5 mph 78% 0 in 212 W/m2
12:44 53.1 °F 46 °F 29.9 in Calm   4.9 mph 77% 0 in 240 W/m2
12:49 53.2 °F 45.9 °F 29.9 in ESE 0.5 mph 4.9 mph 76.2% 0 in 256 W/m2
12:54 53.8 °F 46.2 °F 29.9 in Calm   2.5 mph 75.4% 0 in 271 W/m2
12:59 54 °F 46 °F 29.9 in SE 0.1 mph 4.9 mph 74.8% 0 in 287 W/m2
13:04 54.1 °F 46.2 °F 29.9 in SE 0.7 mph 4.9 mph 74.7% 0 in 303 W/m2
13:09 54.3 °F 46.8 °F 29.9 in SSE 0.6 mph 7.6 mph 75.2% 0 in 317 W/m2
13:14 54.9 °F 47.1 °F 29.9 in SSE 1 mph 7.6 mph 75.1% 0 in 227 W/m2
13:19 54.7 °F 47.1 °F 29.9 in SSE 0.4 mph 4.9 mph 75.7% 0 in 121 W/m2
13:24 54.5 °F 47.1 °F 29.9 in Calm   2.5 mph 76.1% 0 in 103 W/m2
13:29 54.3 °F 46.8 °F 29.9 in Calm     76% 0 in 106 W/m2
13:34 53.6 °F 46.6 °F 29.9 in SE 0.2 mph 2.5 mph 76.8% 0 in 115 W/m2
13:39 53.6 °F 46.6 °F 0 in Calm   2.5 mph 76.8% 0 in 112 W/m2
13:44 53.6 °F 46.6 °F 0 in Calm     77.2% 0 in 96 W/m2
13:49 53.4 °F 46.8 °F 0 in Calm     77.9% 0 in 99 W/m2
13:54 53.2 °F 46.2 °F 29.9 in Calm     76.9% 0 in 98 W/m2
13:59 53.2 °F 45.9 °F 29.9 in Calm     76% 0 in 88 W/m2
14:04 53.2 °F 46.2 °F 29.9 in Calm     77% 0 in 84 W/m2
14:09 53.1 °F 45.9 °F 29.9 in Calm     76.7% 0 in 82 W/m2
14:14 52.7 °F 46.2 °F 29.9 in Calm     78.3% 0 in 91 W/m2
14:19 52.7 °F 46.4 °F 29.9 in Calm     79% 0 in 102 W/m2
14:24 52.5 °F 46.4 °F 29.8 in Calm     79.6% 0 in 79 W/m2
14:29 52.5 °F 46.4 °F 29.8 in Calm     79.4% 0 in 135 W/m2
14:34 52.2 °F 45.7 °F 29.8 in Calm     78.6% 0 in 336 W/m2
14:39 52.3 °F 45 °F 29.8 in Calm     76.1% 0 in 332 W/m2
14:44 52.7 °F 45.1 °F 29.8 in Calm     75.4% 0 in 337 W/m2
14:49 53.1 °F 45.1 °F 29.8 in ESE 0.2 mph 4.9 mph 74.8% 0 in 343 W/m2
14:54 56.3 °F 47.1 °F 29.8 in Calm     71.6% 0 in 347 W/m2
14:59 56.3 °F 47.1 °F 29.8 in Calm     71.2% 0 in 347 W/m2
15:04 56.3 °F 47.1 °F 29.8 in Calm   2.5 mph 71.3% 0 in 313 W/m2
15:09 56.3 °F 47.8 °F 29.8 in ESE 0.2 mph 4.9 mph 73% 0 in 306 W/m2
15:14 55.6 °F 46.9 °F 29.8 in Calm   4.9 mph 72.2% 0 in 243 W/m2
15:19 55.6 °F 46.9 °F 29.8 in SE 0.2 mph 2.5 mph 72.2% 0 in 294 W/m2
15:24 55.8 °F 46.4 °F 29.8 in Calm   2.5 mph 70.7% 0 in 299 W/m2
15:29 55.9 °F 46.8 °F 29.8 in Calm     71% 0 in 287 W/m2
15:34 55 °F 46.8 °F 29.8 in Calm     73.3% 0 in 282 W/m2
15:39 55.2 °F 45.9 °F 29.8 in Calm     70.8% 0 in 284 W/m2
15:44 55.6 °F 46 °F 29.8 in Calm     70.1% 0 in 272 W/m2
15:49 55.6 °F 46.9 °F 29.8 in Calm     72.7% 0 in 247 W/m2
15:54 55.6 °F 46.9 °F 29.8 in Calm     72.5% 0 in 227 W/m2
15:59 55.6 °F 46.4 °F 29.8 in Calm     70.9% 0 in 250 W/m2
16:04 55.8 °F 46.8 °F 29.8 in Calm     71.9% 0 in 251 W/m2
16:09 55.8 °F 47.1 °F 29.8 in Calm   4.9 mph 72.4% 0 in 81 W/m2
16:14 54.3 °F 46.4 °F 29.8 in Calm   2.5 mph 74.6% 0 in 59 W/m2
16:19 54.3 °F 46.6 °F 29.8 in Calm     74.9% 0 in 55 W/m2
16:24 54.1 °F 46.8 °F 29.8 in Calm     76% 0 in 51 W/m2
16:29 54 °F 46.9 °F 29.8 in Calm     76.9% 0 in 49 W/m2
16:34 53.1 °F 46 °F 29.8 in Calm     77.3% 0 in 42 W/m2
16:39 52.9 °F 46.4 °F 29.8 in Calm     78.7% 0 in 34 W/m2
16:44 52.7 °F 46.6 °F 29.8 in Calm     79.3% 0 in 28 W/m2
16:49 52.3 °F 46.8 °F 29.8 in Calm     80.7% 0 in 28 W/m2
16:54 51.3 °F 45.7 °F 29.8 in Calm     81% 0 in 28 W/m2
16:59 50.9 °F 45.7 °F 29.8 in SSW 0.2 mph 4.9 mph 81.7% 0 in 25 W/m2
17:04 50.9 °F 45.7 °F 29.8 in Calm   4.9 mph 82% 0 in 23 W/m2
17:09 50.7 °F 45.7 °F 29.8 in Calm     82.9% 0 in 20 W/m2
17:14 50 °F 45.1 °F 29.8 in Calm     83.2% 0 in 17 W/m2
17:19 50 °F 45 °F 29.8 in Calm     82.8% 0 in 12 W/m2
17:24 50 °F 44.8 °F 29.8 in Calm     82.3% 0 in 9 W/m2
17:29 50 °F 45.1 °F 29.8 in Calm     83.3% 0 in 6 W/m2
17:34 49.6 °F 44.8 °F 29.8 in Calm     83.6% 0 in 4 W/m2
17:39 49.5 °F 44.6 °F 29.8 in Calm     83.3% 0 in 2 W/m2
17:44 49.5 °F 44.6 °F 29.8 in Calm     83.1% 0 in 0 W/m2
17:49 49.3 °F 45 °F 29.8 in Calm     84.6% 0 in 0 W/m2
17:54 48.9 °F 44.6 °F 29.8 in Calm     85% 0 in 0 W/m2
17:59 48.9 °F 44.6 °F 29.8 in Calm     85% 0 in 0 W/m2
18:04 48.9 °F 44.6 °F 29.8 in Calm     85% 0 in 0 W/m2
18:09 48.7 °F 44.4 °F 29.8 in West 0.2 mph 2.5 mph 84.9% 0 in 0 W/m2
18:14 48.6 °F 44.4 °F 29.8 in Calm   2.5 mph 85.8% 0 in 0 W/m2
18:19 48.4 °F 44.2 °F 29.8 in Calm   2.5 mph 85.3% 0 in 0 W/m2
18:24 48.4 °F 43.7 °F 29.8 in Calm     84% 0 in 0 W/m2
18:29 48.4 °F 43.9 °F 29.8 in Calm     84.3% 0 in 0 W/m2
18:34 48.7 °F 43.9 °F 29.8 in Calm     83% 0 in 0 W/m2
18:39 48.7 °F 44.1 °F 29.8 in Calm     83.5% 0 in 0 W/m2
18:44 48.7 °F 44.2 °F 29.8 in South 1.1 mph 4.9 mph 84.4% 0 in 0 W/m2
18:49 48.7 °F 44.1 °F 29.8 in Calm   4.9 mph 84.1% 0 in 0 W/m2
18:54 48.2 °F 43.9 °F 29.8 in Calm     84.8% 0 in 0 W/m2
18:59 48 °F 43.3 °F 29.8 in Calm     84.1% 0 in 0 W/m2
19:04 48 °F 43.7 °F 29.8 in Calm     84.9% 0 in 0 W/m2
19:09 48 °F 43.2 °F 29.8 in Calm     83% 0 in 0 W/m2
19:14 48.7 °F 43.2 °F 29.8 in Calm     81% 0 in 0 W/m2
19:19 49.1 °F 42.6 °F 29.8 in Calm     78.2% 0 in 0 W/m2
19:24 49.3 °F 42.6 °F 29.9 in WNW 0.1 mph 2.5 mph 77.8% 0 in 0 W/m2
19:29 49.5 °F 42.1 °F 29.9 in Calm   2.5 mph 75.7% 0 in 0 W/m2
19:34 50.4 °F 42.4 °F 29.9 in Calm     74.1% 0 in 0 W/m2
19:39 50.7 °F 42.4 °F 29.9 in Calm     73% 0 in 0 W/m2
19:44 50.7 °F 42.3 °F 29.9 in South 0.2 mph 2.5 mph 72.7% 0 in 0 W/m2
19:49 50.5 °F 43.9 °F 29.9 in Calm     77.3% 0 in 0 W/m2
19:54 49.3 °F 43.7 °F 29.9 in Calm     80.5% 0 in 0 W/m2
19:59 48.7 °F 43.5 °F 29.9 in Calm     82% 0 in 0 W/m2
20:04 48.7 °F 42.6 °F 29.9 in Calm     79.1% 0 in 0 W/m2
20:09 48.9 °F 41 °F 29.9 in Calm     74% 0 in 0 W/m2
20:14 50.7 °F 41.7 °F 29.9 in Calm   2.5 mph 71.4% 0 in 0 W/m2
20:19 51.6 °F 42.8 °F 29.9 in Calm     71.6% 0 in 0 W/m2
20:24 51.6 °F 42.1 °F 29.9 in Calm     70% 0 in 0 W/m2
20:29 51.8 °F 42.3 °F 29.9 in Calm     70% 0 in 0 W/m2
20:34 52 °F 42.4 °F 29.9 in Calm     70% 0 in 0 W/m2
20:39 52 °F 42.6 °F 29.9 in Calm     70.6% 0 in 0 W/m2
20:44 52 °F 42.4 °F 29.9 in Calm     70% 0 in 0 W/m2
20:49 52 °F 42.4 °F 29.9 in Calm   2.5 mph 70% 0 in 0 W/m2
20:54 52.2 °F 42.4 °F 29.9 in Calm     70% 0 in 0 W/m2
20:59 52.2 °F 42.8 °F 29.9 in Calm     70.7% 0 in 0 W/m2
21:04 52.2 °F 42.8 °F 29.9 in Calm     70.3% 0 in 0 W/m2
21:09 52.2 °F 42.4 °F 29.8 in Calm     69.7% 0 in 0 W/m2
21:14 52.2 °F 42.4 °F 29.8 in Calm     69.6% 0 in 0 W/m2
21:19 52.3 °F 42.1 °F 29.8 in SSE 0.1 mph 2.5 mph 68.1% 0 in 0 W/m2
21:24 52.3 °F 41.9 °F 29.8 in Calm     67.4% 0 in 0 W/m2
21:29 52.2 °F 42.8 °F 29.8 in North 1 mph 4.9 mph 70.4% 0 in 0 W/m2
21:34 50.9 °F 44.2 °F 29.9 in NNE 0.3 mph 7.6 mph 78.1% 0 in 0 W/m2
21:39 48.6 °F 42.4 °F 29.8 in Calm     79.3% 0 in 0 W/m2
21:44 48.6 °F 41.9 °F 29.8 in West 0.2 mph 2.5 mph 77.7% 0 in 0 W/m2
21:49 48.7 °F 41.2 °F 29.8 in Calm   2.5 mph 74.6% 0 in 0 W/m2
21:54 49.5 °F 41.5 °F 29.8 in Calm     73.8% 0 in 0 W/m2
21:59 50.9 °F 42.3 °F 29.8 in WSW 0.1 mph 2.5 mph 72.3% 0 in 0 W/m2
22:04 50.9 °F 42.3 °F 29.8 in Calm     72.1% 0 in 0 W/m2
22:09 50.9 °F 42.6 °F 29.8 in Calm     72.9% 0 in 0 W/m2
22:14 50.5 °F 42.4 °F 29.8 in Calm     73.4% 0 in 0 W/m2
22:19 49.8 °F 43.2 °F 29.8 in Calm     77.6% 0 in 0 W/m2
22:24 49.6 °F 43.5 °F 29.8 in Calm     79.8% 0 in 0 W/m2
22:29 49.1 °F 43.3 °F 29.8 in Calm     80.4% 0 in 0 W/m2
22:34 48.7 °F 42.4 °F 29.8 in Calm     78.6% 0 in 0 W/m2
22:39 48 °F 41.7 °F 29.8 in Calm     78.7% 0 in 0 W/m2
22:44 48 °F 42.4 °F 29.8 in NNW 0.2 mph 2.5 mph 81% 0 in 0 W/m2
22:49 47.7 °F 43.7 °F 29.8 in Calm   2.5 mph 85.8% 0 in 0 W/m2
22:54 47.3 °F 43 °F 29.8 in Calm     84.8% 0 in 0 W/m2
22:59 46.6 °F 41.4 °F 29.8 in Calm     82% 0 in 0 W/m2
23:04 46.8 °F 40.5 °F 29.8 in Calm     78.7% 0 in 0 W/m2
23:09 46.9 °F 39.9 °F 29.8 in Calm     76.4% 0 in 0 W/m2
23:14 47.5 °F 40.3 °F 29.8 in Calm     76.1% 0 in 0 W/m2
23:19 48 °F 41.9 °F 29.8 in North 2.2 mph 4.9 mph 79.2% 0 in 0 W/m2
23:24 47.8 °F 43.5 °F 29.8 in NNW 2 mph 7.6 mph 85.4% 0 in 0 W/m2
23:29 47.7 °F 41 °F 29.8 in SW 0.4 mph 4.9 mph 77.4% 0 in 0 W/m2
23:34 48 °F 40.6 °F 29.8 in SSW 1.2 mph 10.1 mph 75.6% 0 in 0 W/m2
23:39 50 °F 42.3 °F 29.8 in SSW 0.7 mph 4.9 mph 74.2% 0 in 0 W/m2
23:44 50.2 °F 41.9 °F 29.8 in South 0.7 mph 7.6 mph 73% 0 in 0 W/m2
23:49 50.2 °F 42.1 °F 29.8 in Calm   4.9 mph 73.6% 0 in 0 W/m2
23:54 50.2 °F 43 °F 29.8 in Calm     76% 0 in 0 W/m2
23:59 46.9 °F 43 °F 29.8 in Calm     85.5% 0 in 0 W/m2
Juneau County Weather
Compliments of Weather Underground - 2 mb